This is the latest recevied weather packets stored in our database for station/object N9JXN-13. If no packets are shown the sender has not sent any weather packets the latest 10 day(s).
| Time | Temp. | Humidity | Pressure | Rain* | Wind** | Luminosity | Snow |
|---|---|---|---|---|---|---|---|
| 1777946362 | 14.44° C | 94% | 1000 hPa | 2.79 mm | - | 0 W/m² | - |
| 1777945462 | 14.44° C | 93% | 999 hPa | 4.83 mm | - | 0 W/m² | - |
| 1777943962 | 14.44° C | 91% | 999 hPa | 6.1 mm | - | 0 W/m² | - |
| 1777943662 | 14.44° C | 90% | 999.3 hPa | 5.84 mm | - | 0 W/m² | - |
| 1777941862 | 13.89° C | 87% | 1000.8 hPa | 4.83 mm | - | 0 W/m² | - |
| 1777939762 | 16.67° C | 82% | 998.1 hPa | 1.78 mm | - | 0 W/m² | - |
| 1777938861 | 18.33° C | 76% | 998.3 hPa | 0.76 mm | - | 0 W/m² | - |
| 1777936462 | 19.44° C | 75% | 996.6 hPa | 1.02 mm | - | 9 W/m² | - |
| 1777935562 | 22.22° C | 61% | 997.3 hPa | 0.51 mm | - | 7 W/m² | - |
| 1777930462 | 26.67° C | 40% | 997.3 hPa | 0 mm | - | 181 W/m² | - |
| 1777930162 | 26.67° C | 40% | 997.4 hPa | 0 mm | - | 200 W/m² | - |
| 1777928361 | 26.67° C | 39% | 998 hPa | 0 mm | - | 193 W/m² | - |
| 1777927761 | 27.22° C | 37% | 998.1 hPa | 0 mm | - | 830 W/m² | - |
| 1777927463 | 27.22° C | 37% | 998.1 hPa | 0 mm | - | 178 W/m² | - |
| 1777926262 | 28.33° C | 35% | 998.2 hPa | 0 mm | - | 775 W/m² | - |
| 1777925663 | 28.33° C | 35% | 998.4 hPa | 0 mm | - | 802 W/m² | - |
| 1777923562 | 28.89° C | 32% | 998.8 hPa | 0 mm | - | 831 W/m² | - |
| 1777921463 | 28.33° C | 33% | 999.1 hPa | 0 mm | - | 895 W/m² | - |
| 1777919362 | 27.78° C | 35% | 999.4 hPa | 0 mm | - | 925 W/m² | - |
| 1777915462 | 27.22° C | 38% | 999.9 hPa | 0 mm | - | 937 W/m² | - |
| 1777913663 | 26.11° C | 42% | 1000.3 hPa | 0 mm | - | 909 W/m² | - |
| 1777912162 | 25.56° C | 43% | 1000.7 hPa | 0 mm | - | 891 W/m² | - |
| 1777910962 | 24.44° C | 49% | 1001.1 hPa | 0 mm | - | 863 W/m² | - |
| 1777910662 | 23.89° C | 49% | 1001.3 hPa | 0 mm | - | 854 W/m² | - |
| 1777908561 | 22.78° C | 52% | 1001.5 hPa | 0 mm | - | 791 W/m² | - |
* Rain latest hour (hover to see other rain measurements)
** Current wind speed in m/s (hover to see current wind gust speed)